Ellis Island, New Jersey
Current Conditions -  °F | °C
As of 1:51 AM on Thursday 23 Oct 2014 (Local Time) from KEWR Reporting Station
Overcast Overcast  
Wind Chill: 53°   Ceiling: 2700
Heat Index: 53°   Visibility: 9mi
Dew Point: 47°   Wind: 25mph
Humidity: 80%   Direction: 360°N
Pressure: 29.72"   Gusts: 33mph
Location:  40.696°N, 74.0853°W
Report Text: KEWR 230551Z 36022G29KT 9SM FEW016 BKN027 OVC040 12/08 A2972 RMK AO2 PK WND 36029/0551 SLP064 60033 T01170083 10117 20106 56009 $
Loading
Personal Weather Stations






























Interactive Weather Map
Tropical Storm Tracking
New forecast layout! Learn more

10-Day Weather Forecast

Advertisements
Track Severe Weather on mobile